createdAt,value
2022-09-09T00:01:46.615Z,12.87
2022-09-09T00:04:22.645Z,13.13
2022-09-09T00:07:06.700Z,10.23
2022-09-09T00:09:50.216Z,12.23
2022-09-09T00:12:33.720Z,12.77
2022-09-09T00:15:13.019Z,11.83
2022-09-09T00:18:15.381Z,14.30
2022-09-09T00:20:58.286Z,11.90
2022-09-09T00:23:27.200Z,13.53
2022-09-09T00:26:12.357Z,12.40
2022-09-09T00:28:49.609Z,13.13
2022-09-09T00:31:28.824Z,12.30
2022-09-09T00:34:03.943Z,12.43
2022-09-09T00:36:34.629Z,15.90
2022-09-09T00:39:03.107Z,10.73
2022-09-09T00:41:30.155Z,15.43
2022-09-09T00:44:21.985Z,13.90
2022-09-09T00:47:04.925Z,13.67
2022-09-09T00:50:01.777Z,16.07
2022-09-09T00:52:54.363Z,16.70
2022-09-09T00:55:39.166Z,12.53
2022-09-09T00:58:09.500Z,13.70
2022-09-09T01:00:50.151Z,12.63
2022-09-09T01:03:34.229Z,13.23
2022-09-09T01:06:22.847Z,10.40
2022-09-09T01:09:03.644Z,12.30
2022-09-09T01:12:02.457Z,15.43
2022-09-09T01:14:35.334Z,13.43
2022-09-09T01:17:06.990Z,13.70
2022-09-09T01:19:47.594Z,14.40
2022-09-09T01:22:31.351Z,14.70
2022-09-09T01:25:11.465Z,15.50
2022-09-09T01:27:41.658Z,13.87
2022-09-09T01:30:17.051Z,16.87
2022-09-09T01:32:47.327Z,24.43
2022-09-09T01:35:46.695Z,13.20
2022-09-09T01:38:14.800Z,19.83
2022-09-09T01:40:42.619Z,15.63
2022-09-09T01:43:10.381Z,16.63
2022-09-09T01:45:39.393Z,15.40
2022-09-09T01:48:06.852Z,15.63
2022-09-09T01:50:34.044Z,15.03
2022-09-09T01:53:03.713Z,15.07
2022-09-09T01:55:39.701Z,16.20
2022-09-09T01:58:18.610Z,20.17
2022-09-09T02:01:10.775Z,14.00
2022-09-09T02:03:38.254Z,13.73
2022-09-09T02:06:18.365Z,15.27
2022-09-09T02:08:51.370Z,13.70
2022-09-09T02:11:21.465Z,14.13
2022-09-09T02:13:51.978Z,16.10
2022-09-09T02:16:27.455Z,14.63
2022-09-09T02:19:14.206Z,13.07
2022-09-09T02:21:45.080Z,13.57
2022-09-09T02:24:15.519Z,19.50
2022-09-09T02:26:46.355Z,15.20
2022-09-09T02:29:21.661Z,16.43
2022-09-09T02:31:52.699Z,17.57
2022-09-09T02:34:22.913Z,18.43
2022-09-09T02:36:54.802Z,13.40
2022-09-09T02:39:22.195Z,17.07
2022-09-09T02:41:49.792Z,14.67
2022-09-09T02:44:19.347Z,15.73
2022-09-09T02:47:47.994Z,15.67
2022-09-09T02:50:32.197Z,16.20
2022-09-09T02:53:08.892Z,15.10
2022-09-09T02:55:51.328Z,18.40
2022-09-09T02:58:20.124Z,15.93
2022-09-09T03:00:50.723Z,18.07
2022-09-09T03:03:21.018Z,18.53
2022-09-09T03:05:52.929Z,17.93
2022-09-09T03:08:24.677Z,16.30
2022-09-09T03:10:55.500Z,16.80
2022-09-09T03:13:22.916Z,14.70
2022-09-09T03:15:50.093Z,15.87
2022-09-09T03:18:17.654Z,16.37
2022-09-09T03:20:45.034Z,15.93
2022-09-09T03:23:15.883Z,15.50
2022-09-09T03:25:53.412Z,17.77
2022-09-09T03:28:21.785Z,15.07
2022-09-09T03:30:50.198Z,18.47
2022-09-09T03:33:17.473Z,16.83
2022-09-09T03:35:51.700Z,17.77
2022-09-09T03:38:19.400Z,14.87
2022-09-09T03:40:51.404Z,16.73
2022-09-09T03:43:18.719Z,17.17
2022-09-09T03:45:49.771Z,15.00
2022-09-09T03:48:18.164Z,13.17
2022-09-09T03:50:47.584Z,20.93
2022-09-09T03:53:16.299Z,15.87
2022-09-09T03:55:53.798Z,16.93
2022-09-09T03:58:22.740Z,17.97
2022-09-09T04:00:59.269Z,13.77
2022-09-09T04:03:28.786Z,18.80
2022-09-09T04:05:57.625Z,14.07
2022-09-09T04:08:27.873Z,16.43
2022-09-09T04:10:59.070Z,13.77
2022-09-09T04:13:27.974Z,13.23
2022-09-09T04:15:58.743Z,16.83
2022-09-09T04:18:29.625Z,14.67
2022-09-09T04:20:59.087Z,15.90
2022-09-09T04:23:30.027Z,13.07
2022-09-09T04:26:00.151Z,18.00
2022-09-09T04:28:30.235Z,15.60
2022-09-09T04:31:01.882Z,12.27
2022-09-09T04:33:34.309Z,15.27
2022-09-09T04:36:04.511Z,15.37
2022-09-09T04:38:35.069Z,14.57
2022-09-09T04:41:02.570Z,15.93
2022-09-09T04:43:31.980Z,12.97
2022-09-09T04:46:00.876Z,13.83
2022-09-09T04:48:28.836Z,13.87
2022-09-09T04:51:10.456Z,16.23
2022-09-09T04:53:39.198Z,15.03
2022-09-09T04:56:09.149Z,12.63
2022-09-09T04:58:38.208Z,18.47
2022-09-09T05:01:11.796Z,16.53
2022-09-09T05:03:39.435Z,14.43
2022-09-09T05:06:09.453Z,14.17
2022-09-09T05:08:39.175Z,14.17
2022-09-09T05:11:39.330Z,13.00
2022-09-09T05:14:07.145Z,18.63
2022-09-09T05:16:34.609Z,13.00
2022-09-09T05:19:04.426Z,13.93
2022-09-09T05:21:32.648Z,11.63
2022-09-09T05:24:01.570Z,11.03
2022-09-09T05:26:30.514Z,12.43
2022-09-09T05:28:58.125Z,10.57
2022-09-09T05:31:27.300Z,13.97
2022-09-09T05:33:54.491Z,11.17
2022-09-09T05:36:25.917Z,12.27
2022-09-09T05:38:54.989Z,13.20
2022-09-09T05:41:24.239Z,12.60
2022-09-09T05:43:52.438Z,17.17
2022-09-09T05:46:28.437Z,12.90
2022-09-09T05:48:57.188Z,12.03
2022-09-09T05:51:28.544Z,16.13
2022-09-09T05:54:10.657Z,13.40
2022-09-09T05:56:38.636Z,11.77
2022-09-09T05:59:07.167Z,13.43
2022-09-09T06:01:42.029Z,11.97
2022-09-09T06:04:09.985Z,11.20
2022-09-09T06:06:40.680Z,12.07
2022-09-09T06:09:10.973Z,15.03
2022-09-09T06:11:40.242Z,13.10
2022-09-09T06:14:08.341Z,9.80
2022-09-09T06:16:36.326Z,13.80
2022-09-09T06:19:04.418Z,18.17
2022-09-09T06:21:36.080Z,13.33
2022-09-09T06:24:04.184Z,10.97
2022-09-09T06:26:36.972Z,10.87
2022-09-09T06:29:05.215Z,11.60
2022-09-09T06:31:35.652Z,11.57
2022-09-09T06:34:05.060Z,12.20
2022-09-09T06:36:34.720Z,15.03
2022-09-09T06:39:02.671Z,13.97
2022-09-09T06:41:31.898Z,12.37
2022-09-09T06:43:59.259Z,10.00
2022-09-09T06:46:29.241Z,14.60
2022-09-09T06:48:59.944Z,12.90
2022-09-09T06:51:30.709Z,13.63
2022-09-09T06:53:59.895Z,12.20
2022-09-09T06:56:34.079Z,13.00
2022-09-09T06:59:04.960Z,16.33
2022-09-09T07:01:38.092Z,16.73
2022-09-09T07:04:08.576Z,13.97
2022-09-09T07:06:44.496Z,12.67
2022-09-09T07:09:14.404Z,14.70
2022-09-09T07:11:47.538Z,15.73
2022-09-09T07:14:15.755Z,12.43
2022-09-09T07:16:43.851Z,11.87
2022-09-09T07:19:12.477Z,14.63
2022-09-09T07:21:41.403Z,14.73
2022-09-09T07:24:11.228Z,15.60
2022-09-09T07:26:40.407Z,15.37
2022-09-09T07:29:09.830Z,17.67
2022-09-09T07:31:40.969Z,12.60
2022-09-09T07:34:08.938Z,13.97
2022-09-09T07:36:39.097Z,15.97
2022-09-09T07:39:11.990Z,15.17
2022-09-09T07:41:46.299Z,15.73
2022-09-09T07:44:17.011Z,13.63
2022-09-09T07:46:46.387Z,15.37
2022-09-09T07:49:13.849Z,20.53
2022-09-09T07:51:43.948Z,18.23
2022-09-09T07:54:13.713Z,16.97
2022-09-09T07:56:52.791Z,22.37
2022-09-09T07:59:25.481Z,14.30
2022-09-09T08:01:56.314Z,17.50
2022-09-09T08:04:25.161Z,15.63
2022-09-09T08:06:55.732Z,14.30
2022-09-09T08:09:26.191Z,16.23
2022-09-09T08:11:53.912Z,16.87
2022-09-09T08:14:21.196Z,16.80
2022-09-09T08:16:49.376Z,15.17
2022-09-09T08:19:17.550Z,18.20
2022-09-09T08:21:45.711Z,20.30
2022-09-09T08:24:15.068Z,17.80
2022-09-09T08:26:45.339Z,14.17
2022-09-09T08:29:14.919Z,18.13
2022-09-09T08:31:47.562Z,16.77
2022-09-09T08:34:16.244Z,19.40
2022-09-09T08:36:45.534Z,17.57
2022-09-09T08:39:15.430Z,18.23
2022-09-09T08:42:03.986Z,17.17
2022-09-09T08:45:10.289Z,18.57
2022-09-09T08:47:50.420Z,20.50
2022-09-09T08:50:32.956Z,19.13
2022-09-09T08:53:09.331Z,19.03
2022-09-09T08:55:43.690Z,17.67
2022-09-09T09:01:22.662Z,18.60
2022-09-09T09:03:55.502Z,17.57
2022-09-09T09:06:45.949Z,19.67
2022-09-09T09:09:19.835Z,19.87
2022-09-09T09:11:53.792Z,23.20
2022-09-09T09:17:06.582Z,21.90
2022-09-09T09:19:36.197Z,20.83
2022-09-09T09:22:16.353Z,22.90
2022-09-09T09:24:54.758Z,17.63
2022-09-09T09:27:29.779Z,18.90
2022-09-09T09:30:29.476Z,21.43
2022-09-09T09:33:15.368Z,23.50
2022-09-09T09:35:44.417Z,20.00
2022-09-09T09:41:16.367Z,23.23
2022-09-09T09:43:55.481Z,23.13
2022-09-09T09:46:26.770Z,18.40
2022-09-09T09:49:06.588Z,21.33
2022-09-09T09:51:35.204Z,23.93
2022-09-09T09:54:43.584Z,23.93
2022-09-09T09:57:12.884Z,20.83
2022-09-09T09:59:41.117Z,21.33
2022-09-09T10:02:26.720Z,24.63
2022-09-09T10:05:27.213Z,27.03
2022-09-09T10:08:14.868Z,24.03
2022-09-09T10:11:04.388Z,23.50
2022-09-09T10:13:34.563Z,24.43
2022-09-09T10:16:08.377Z,27.17
2022-09-09T10:18:49.991Z,28.43
2022-09-09T10:21:33.264Z,28.63
2022-09-09T10:24:34.668Z,23.60
2022-09-09T10:27:21.227Z,26.43
2022-09-09T10:29:58.308Z,23.43
2022-09-09T10:32:37.154Z,22.17
2022-09-09T10:35:28.373Z,26.23
2022-09-09T10:38:15.512Z,25.00
2022-09-09T10:41:06.556Z,26.10
2022-09-09T10:43:49.235Z,26.80
2022-09-09T10:46:35.170Z,30.17
2022-09-09T10:49:23.215Z,32.53
2022-09-09T10:52:23.491Z,29.80
2022-09-09T10:55:13.670Z,27.10
2022-09-09T10:57:49.813Z,25.17
2022-09-09T11:00:23.287Z,33.43
2022-09-09T11:02:57.385Z,25.70
2022-09-09T11:05:45.949Z,27.67
2022-09-09T11:08:30.361Z,33.23
2022-09-09T11:11:13.146Z,28.80
2022-09-09T11:14:00.728Z,26.57
2022-09-09T11:16:52.049Z,27.67
2022-09-09T11:19:28.266Z,32.73
2022-09-09T11:21:59.440Z,31.07
2022-09-09T11:24:32.916Z,36.00
2022-09-09T11:27:13.299Z,30.73
2022-09-09T11:30:37.707Z,50.20
2022-09-09T11:33:29.605Z,32.53
2022-09-09T11:36:44.646Z,36.47
2022-09-09T11:39:15.014Z,32.57
2022-09-09T11:41:42.891Z,28.63
2022-09-09T11:44:18.533Z,34.37
2022-09-09T11:46:50.929Z,39.93
2022-09-09T11:49:29.607Z,35.40
2022-09-09T11:51:57.033Z,33.13
2022-09-09T11:54:33.431Z,29.27
2022-09-09T11:57:00.989Z,30.80
2022-09-09T11:59:33.349Z,35.73
2022-09-09T12:02:17.794Z,31.23
2022-09-09T12:05:01.927Z,33.43
2022-09-09T12:07:32.323Z,30.80
2022-09-09T12:10:21.870Z,37.90
2022-09-09T12:12:49.157Z,29.47
2022-09-09T12:15:22.430Z,35.60
2022-09-09T12:17:52.805Z,36.23
2022-09-09T12:20:37.443Z,38.13
2022-09-09T12:23:21.724Z,37.40
2022-09-09T12:26:17.011Z,35.30
2022-09-09T12:29:11.124Z,33.20
2022-09-09T12:31:45.480Z,35.13
2022-09-09T12:34:23.482Z,35.37
2022-09-09T12:37:07.607Z,34.57
2022-09-09T12:39:47.532Z,35.53
2022-09-09T12:42:22.712Z,36.60
2022-09-09T12:45:00.730Z,40.70
2022-09-09T12:47:48.660Z,42.10
2022-09-09T12:50:28.739Z,36.77
2022-09-09T12:53:00.068Z,37.30
2022-09-09T12:55:34.408Z,37.03
2022-09-09T12:58:06.592Z,37.47
2022-09-09T13:00:35.996Z,39.80
2022-09-09T13:03:18.705Z,34.80
2022-09-09T13:05:47.852Z,43.87
2022-09-09T13:08:19.616Z,39.80
2022-09-09T13:11:00.235Z,33.77
2022-09-09T13:13:39.658Z,33.07
2022-09-09T13:16:19.084Z,38.60
2022-09-09T13:18:47.604Z,37.40
2022-09-09T13:21:15.309Z,36.93
2022-09-09T13:23:42.848Z,36.93
2022-09-09T13:26:27.933Z,39.13
2022-09-09T13:28:55.992Z,38.57
2022-09-09T13:31:32.891Z,45.33
2022-09-09T13:34:00.232Z,41.60
2022-09-09T13:36:33.306Z,43.87
2022-09-09T13:39:02.720Z,40.70
2022-09-09T13:41:43.015Z,38.63
2022-09-09T13:44:24.101Z,42.10
2022-09-09T13:47:14.557Z,36.53
2022-09-09T13:49:41.622Z,36.20
2022-09-09T13:52:18.204Z,35.37
2022-09-09T13:54:52.462Z,38.43
2022-09-09T13:57:22.488Z,34.40
2022-09-09T14:00:06.473Z,35.40
2022-09-09T14:02:34.917Z,38.00
2022-09-09T14:05:02.698Z,39.23
2022-09-09T14:07:30.168Z,38.33
2022-09-09T14:09:57.778Z,41.77
2022-09-09T14:12:25.490Z,35.40
2022-09-09T14:14:52.564Z,37.23
2022-09-09T14:17:20.091Z,37.43
2022-09-09T14:19:47.225Z,35.13
2022-09-09T14:22:15.116Z,38.07
2022-09-09T14:24:43.192Z,37.90
2022-09-09T14:27:10.677Z,34.13
2022-09-09T14:29:37.971Z,46.27
2022-09-09T14:32:08.392Z,37.47
2022-09-09T14:34:38.554Z,39.50
2022-09-09T14:37:05.731Z,38.40
2022-09-09T14:39:33.546Z,40.60
2022-09-09T14:42:00.922Z,39.00
2022-09-09T14:44:28.379Z,42.67
2022-09-09T14:46:56.083Z,40.27
2022-09-09T14:49:23.974Z,45.90
2022-09-09T14:51:51.432Z,42.50
2022-09-09T14:54:18.952Z,42.23
2022-09-09T14:56:46.282Z,43.03
2022-09-09T14:59:14.224Z,38.97
2022-09-09T15:01:42.593Z,40.30
2022-09-09T15:04:16.346Z,42.87
2022-09-09T15:06:48.141Z,37.03
2022-09-09T15:09:16.599Z,36.53
2022-09-09T15:11:45.363Z,35.60
2022-09-09T15:14:13.268Z,37.73
2022-09-09T15:16:41.808Z,35.53
2022-09-09T15:19:10.406Z,32.13
2022-09-09T15:21:45.832Z,35.47
2022-09-09T15:24:14.828Z,36.97
2022-09-09T15:26:42.625Z,34.50
2022-09-09T15:29:10.188Z,37.93
2022-09-09T15:31:38.442Z,34.27
2022-09-09T15:34:08.270Z,31.87
2022-09-09T15:36:42.951Z,34.20
2022-09-09T15:39:16.786Z,35.87
2022-09-09T15:41:45.578Z,31.20
2022-09-09T15:44:13.410Z,33.03
2022-09-09T15:46:42.408Z,35.90
2022-09-09T15:49:18.498Z,38.80
2022-09-09T15:51:48.236Z,33.87
2022-09-09T15:54:18.548Z,34.73
2022-09-09T15:56:47.554Z,39.33
2022-09-09T15:59:15.849Z,37.80
2022-09-09T16:01:45.166Z,40.17
2022-09-09T16:04:12.702Z,33.23
2022-09-09T16:06:40.525Z,34.83
2022-09-09T16:09:08.798Z,39.30
2022-09-09T16:11:38.294Z,37.33
2022-09-09T16:14:07.636Z,33.67
2022-09-09T16:16:36.277Z,36.03
2022-09-09T16:19:11.392Z,33.97
2022-09-09T16:21:42.864Z,36.00
2022-09-09T16:24:15.317Z,33.80
2022-09-09T16:26:47.362Z,29.30
2022-09-09T16:29:16.536Z,30.50
2022-09-09T16:31:45.165Z,34.73
2022-09-09T16:34:12.704Z,34.77
2022-09-09T16:36:42.068Z,27.47
2022-09-09T16:39:15.168Z,28.33
2022-09-09T16:41:44.930Z,31.93
2022-09-09T16:44:14.619Z,28.83
2022-09-09T16:46:43.757Z,29.57
2022-09-09T16:49:13.319Z,28.83
2022-09-09T16:51:48.197Z,34.43
2022-09-09T16:54:19.333Z,35.33
2022-09-09T16:56:48.895Z,32.77
2022-09-09T16:59:18.893Z,29.03
2022-09-09T17:01:48.708Z,35.63
2022-09-09T17:04:26.511Z,34.50
2022-09-09T17:06:55.126Z,30.50
2022-09-09T17:09:24.086Z,35.87
2022-09-09T17:11:52.664Z,39.93
2022-09-09T17:14:21.820Z,32.17
2022-09-09T17:16:49.766Z,32.83
2022-09-09T17:19:17.184Z,33.33
2022-09-09T17:22:06.289Z,30.50
2022-09-09T17:24:34.188Z,38.10
2022-09-09T17:27:02.384Z,27.83
2022-09-09T17:29:29.615Z,36.23
2022-09-09T17:31:57.580Z,33.50
2022-09-09T17:34:26.354Z,34.93
2022-09-09T17:36:53.519Z,32.43
2022-09-09T17:39:20.938Z,39.40
2022-09-09T17:41:47.993Z,33.23
2022-09-09T17:44:16.276Z,38.90
2022-09-09T17:46:44.500Z,32.17
2022-09-09T17:49:15.479Z,34.60
2022-09-09T17:51:43.514Z,34.93
2022-09-09T17:54:19.714Z,37.37
2022-09-09T17:56:48.446Z,33.40
2022-09-09T17:59:18.070Z,38.47
2022-09-09T18:01:48.043Z,36.27
2022-09-09T18:04:17.771Z,31.00
2022-09-09T18:06:47.938Z,36.87
2022-09-09T18:09:19.932Z,40.03
2022-09-09T18:11:49.877Z,28.63
2022-09-09T18:14:23.090Z,38.23
2022-09-09T18:16:51.359Z,32.80
2022-09-09T18:19:24.117Z,30.90
2022-09-09T18:21:53.406Z,37.47
2022-09-09T18:24:22.122Z,30.63
2022-09-09T18:26:50.612Z,36.33
2022-09-09T18:29:21.004Z,32.40
2022-09-09T18:31:50.120Z,32.07
2022-09-09T18:34:18.797Z,31.97
2022-09-09T18:36:49.489Z,35.40
2022-09-09T18:39:18.859Z,25.90
2022-09-09T18:41:52.731Z,30.07
2022-09-09T18:44:23.326Z,34.73
2022-09-09T18:46:53.583Z,25.30
2022-09-09T18:49:22.340Z,31.67
2022-09-09T18:51:49.863Z,28.20
2022-09-09T18:54:20.893Z,28.20
2022-09-09T18:56:48.567Z,26.30
2022-09-09T18:59:21.527Z,28.03
2022-09-09T19:01:50.728Z,27.97
2022-09-09T19:04:18.962Z,27.50
2022-09-09T19:06:48.312Z,27.40
2022-09-09T19:09:18.580Z,25.03
2022-09-09T19:11:47.231Z,29.83
2022-09-09T19:14:17.367Z,28.80
2022-09-09T19:16:47.828Z,25.83
2022-09-09T19:19:21.633Z,25.83
2022-09-09T19:21:51.708Z,27.77
2022-09-09T19:24:21.888Z,27.57
2022-09-09T19:26:52.412Z,26.50
2022-09-09T19:29:22.948Z,29.67
2022-09-09T19:32:29.263Z,24.50
2022-09-09T19:34:39.661Z,24.53
2022-09-09T19:37:07.119Z,27.33
2022-09-09T19:39:34.688Z,29.03
2022-09-09T19:42:02.850Z,22.80
2022-09-09T19:44:30.010Z,23.57
2022-09-09T19:46:57.452Z,23.37
2022-09-09T19:49:25.368Z,22.73
2022-09-09T19:51:52.516Z,22.77
2022-09-09T19:54:19.667Z,26.03
2022-09-09T19:56:46.988Z,22.57
2022-09-09T19:59:15.708Z,22.23
2022-09-09T20:01:45.004Z,21.73
2022-09-09T20:04:14.985Z,25.33
2022-09-09T20:06:44.562Z,22.20
2022-09-09T20:09:17.422Z,24.93
2022-09-09T20:11:48.563Z,22.93
2022-09-09T20:14:17.121Z,21.30
2022-09-09T20:16:45.694Z,21.17
2022-09-09T20:19:16.489Z,21.37
2022-09-09T20:21:47.889Z,22.77
2022-09-09T20:24:18.936Z,20.80
2022-09-09T20:26:48.258Z,19.80
2022-09-09T20:29:18.246Z,18.17
2022-09-09T20:31:46.663Z,22.63
2022-09-09T20:34:17.177Z,21.37
2022-09-09T20:36:44.766Z,20.53
2022-09-09T20:39:18.347Z,19.20
2022-09-09T20:41:46.470Z,22.17
2022-09-09T20:44:20.129Z,16.53
2022-09-09T20:46:50.081Z,19.03
2022-09-09T20:49:19.775Z,20.90
2022-09-09T20:51:49.853Z,21.37
2022-09-09T20:54:23.537Z,19.70
2022-09-09T20:56:52.816Z,22.90
2022-09-09T20:59:22.944Z,17.97
2022-09-09T21:01:50.677Z,17.47
2022-09-09T21:04:19.891Z,17.73
2022-09-09T21:06:47.998Z,20.33
2022-09-09T21:09:15.624Z,20.67
2022-09-09T21:11:43.196Z,16.90
2022-09-09T21:14:10.944Z,18.93
2022-09-09T21:16:38.160Z,17.50
2022-09-09T21:19:06.889Z,18.50
2022-09-09T21:21:34.102Z,20.57
2022-09-09T21:24:02.946Z,18.10
2022-09-09T21:26:30.868Z,22.70
2022-09-09T21:28:57.979Z,17.50
2022-09-09T21:31:27.816Z,17.57
2022-09-09T21:33:57.594Z,19.73
2022-09-09T21:36:25.531Z,18.23
2022-09-09T21:38:52.708Z,15.43
2022-09-09T21:41:20.372Z,19.77
2022-09-09T21:43:52.922Z,18.50
2022-09-09T21:46:21.235Z,23.10
2022-09-09T21:48:49.096Z,17.70
2022-09-09T21:51:17.711Z,18.10
2022-09-09T21:53:45.508Z,18.60
2022-09-09T21:56:18.372Z,17.23
2022-09-09T21:58:46.915Z,15.70
2022-09-09T22:01:18.820Z,14.70
2022-09-09T22:03:46.726Z,17.23
2022-09-09T22:06:16.211Z,15.40
2022-09-09T22:08:44.751Z,15.83
2022-09-09T22:11:19.021Z,15.43
2022-09-09T22:13:46.403Z,16.00
2022-09-09T22:16:17.246Z,15.03
2022-09-09T22:18:45.013Z,17.77
2022-09-09T22:21:16.222Z,16.07
2022-09-09T22:23:43.504Z,15.20
2022-09-09T22:26:11.113Z,15.73
2022-09-09T22:28:39.894Z,15.43
2022-09-09T22:31:07.450Z,14.97
2022-09-09T22:33:35.196Z,14.63
2022-09-09T22:36:03.003Z,14.00
2022-09-09T22:38:30.181Z,13.87
2022-09-09T22:40:57.354Z,15.37
2022-09-09T22:43:24.709Z,14.10
2022-09-09T22:45:51.807Z,13.97
2022-09-09T22:48:19.149Z,18.10
2022-09-09T22:50:47.366Z,18.80
2022-09-09T22:53:16.641Z,14.30
2022-09-09T22:55:54.579Z,15.57
2022-09-09T22:58:22.437Z,18.77
2022-09-09T23:00:51.282Z,20.80
2022-09-09T23:03:19.051Z,15.53
2022-09-09T23:05:57.638Z,17.37
2022-09-09T23:08:33.457Z,17.93
2022-09-09T23:11:04.412Z,21.43
2022-09-09T23:13:33.151Z,14.53
2022-09-09T23:16:04.195Z,17.23
2022-09-09T23:18:34.143Z,14.03
2022-09-09T23:21:01.264Z,17.03
2022-09-09T23:23:29.241Z,14.83
2022-09-09T23:25:57.192Z,14.07
2022-09-09T23:28:24.340Z,15.77
2022-09-09T23:30:52.056Z,13.13
2022-09-09T23:33:19.530Z,14.00
2022-09-09T23:35:47.029Z,13.80
2022-09-09T23:38:14.953Z,11.77
2022-09-09T23:40:43.220Z,11.97
2022-09-09T23:43:10.551Z,12.60
2022-09-09T23:45:37.600Z,13.30
2022-09-09T23:48:05.404Z,11.50
2022-09-09T23:50:32.486Z,11.80
2022-09-09T23:52:59.585Z,12.50
2022-09-09T23:55:27.006Z,10.67
2022-09-09T23:57:56.765Z,10.37
